createdAt,value
2017-12-31T00:01:05.896Z,63.93
2017-12-31T00:03:33.697Z,76.37
2017-12-31T00:06:01.549Z,74.33
2017-12-31T00:08:29.381Z,66.00
2017-12-31T00:10:57.255Z,59.57
2017-12-31T00:13:25.047Z,62.10
2017-12-31T00:15:52.847Z,57.17
2017-12-31T00:18:21.504Z,61.23
2017-12-31T00:20:49.335Z,63.13
2017-12-31T00:23:17.151Z,64.13
2017-12-31T00:25:45.008Z,53.77
2017-12-31T00:28:12.851Z,53.50
2017-12-31T00:30:40.673Z,67.07
2017-12-31T00:33:09.283Z,59.33
2017-12-31T00:35:37.077Z,58.70
2017-12-31T00:38:04.888Z,57.43
2017-12-31T00:40:32.719Z,66.53
2017-12-31T00:43:00.541Z,63.50
2017-12-31T00:45:28.348Z,59.00
2017-12-31T00:47:56.263Z,59.37
2017-12-31T00:50:24.051Z,64.20
2017-12-31T00:52:51.913Z,57.03
2017-12-31T00:55:19.702Z,61.87
2017-12-31T00:57:47.568Z,60.97
2017-12-31T01:00:15.391Z,63.10
2017-12-31T01:02:43.271Z,58.33
2017-12-31T01:05:11.088Z,57.75
2017-12-31T01:07:39.655Z,56.97
2017-12-31T01:10:07.527Z,63.20
2017-12-31T01:12:35.346Z,63.93
2017-12-31T01:15:03.936Z,61.17
2017-12-31T01:17:31.761Z,59.10
2017-12-31T01:20:00.329Z,67.57
2017-12-31T01:22:28.167Z,60.33
2017-12-31T01:24:56.054Z,64.70
2017-12-31T01:27:23.931Z,66.87
2017-12-31T01:29:52.717Z,62.23
2017-12-31T01:32:21.337Z,65.07
2017-12-31T01:34:49.289Z,58.33
2017-12-31T01:37:17.143Z,63.93
2017-12-31T01:39:45.764Z,66.43
2017-12-31T01:42:13.564Z,67.87
2017-12-31T01:44:41.352Z,68.90
2017-12-31T01:47:10.018Z,55.20
2017-12-31T01:49:37.939Z,59.10
2017-12-31T01:52:05.828Z,60.10
2017-12-31T01:54:33.647Z,58.80
2017-12-31T01:57:02.276Z,54.30
2017-12-31T01:59:30.186Z,63.73
2017-12-31T02:01:58.740Z,56.93
2017-12-31T02:04:26.635Z,36.53
2017-12-31T02:06:55.294Z,41.30
2017-12-31T02:09:23.158Z,36.70
2017-12-31T02:11:51.015Z,31.27
2017-12-31T02:14:18.871Z,34.63
2017-12-31T02:16:46.770Z,34.17
2017-12-31T02:19:14.647Z,31.33
2017-12-31T02:21:42.467Z,33.87
2017-12-31T02:24:10.299Z,28.43
2017-12-31T02:26:38.943Z,28.67
2017-12-31T02:29:06.839Z,31.77
2017-12-31T02:31:35.495Z,30.70
2017-12-31T02:34:03.451Z,32.73
2017-12-31T02:36:31.242Z,31.93
2017-12-31T02:38:59.056Z,27.20
2017-12-31T02:41:26.916Z,32.93
2017-12-31T02:43:54.735Z,29.87
2017-12-31T02:46:22.556Z,31.67
2017-12-31T02:48:51.124Z,30.20
2017-12-31T02:51:18.983Z,29.43
2017-12-31T02:53:46.831Z,28.80
2017-12-31T02:56:15.420Z,33.13
2017-12-31T02:58:44.049Z,31.07
2017-12-31T03:01:11.859Z,33.50
2017-12-31T03:03:39.753Z,30.90
2017-12-31T03:06:07.581Z,30.70
2017-12-31T03:08:35.415Z,31.53
2017-12-31T03:11:03.241Z,35.33
2017-12-31T03:13:31.107Z,34.90
2017-12-31T03:15:59.700Z,33.50
2017-12-31T03:18:27.592Z,43.73
2017-12-31T03:20:55.425Z,35.43
2017-12-31T03:23:24.005Z,37.57
2017-12-31T03:25:52.585Z,32.00
2017-12-31T03:28:21.243Z,31.80
2017-12-31T03:30:49.896Z,32.10
2017-12-31T03:33:17.756Z,33.87
2017-12-31T03:35:45.663Z,35.93
2017-12-31T03:38:13.447Z,36.67
2017-12-31T03:40:42.020Z,37.37
2017-12-31T03:43:10.659Z,40.00
2017-12-31T03:45:38.478Z,31.80
2017-12-31T03:48:07.129Z,30.70
2017-12-31T03:50:35.006Z,38.37
2017-12-31T03:53:02.908Z,40.23
2017-12-31T03:55:30.750Z,37.30
2017-12-31T03:57:58.559Z,35.90
2017-12-31T04:00:26.386Z,40.53
2017-12-31T04:02:55.047Z,40.03
2017-12-31T04:05:22.844Z,46.07
2017-12-31T04:07:51.441Z,39.40
2017-12-31T04:10:19.290Z,42.37
2017-12-31T04:12:47.821Z,41.27
2017-12-31T04:15:15.727Z,40.20
2017-12-31T04:17:44.372Z,39.27
2017-12-31T04:20:12.167Z,36.58
2017-12-31T04:22:40.062Z,40.97
2017-12-31T04:25:07.935Z,34.70
2017-12-31T04:27:35.759Z,42.30
2017-12-31T04:30:03.575Z,52.70
2017-12-31T04:32:31.373Z,56.37
2017-12-31T04:34:59.258Z,54.83
2017-12-31T04:37:27.101Z,56.17
2017-12-31T04:39:54.889Z,57.50
2017-12-31T04:42:22.743Z,55.87
2017-12-31T04:44:50.623Z,45.10
2017-12-31T04:47:18.475Z,39.77
2017-12-31T04:49:46.314Z,38.97
2017-12-31T04:52:14.137Z,43.47
2017-12-31T04:54:42.834Z,29.60
2017-12-31T04:57:11.429Z,30.70
2017-12-31T04:59:39.233Z,32.33
2017-12-31T05:02:07.060Z,33.70
2017-12-31T05:04:34.843Z,32.00
2017-12-31T05:07:02.677Z,29.50
2017-12-31T05:09:30.528Z,27.13
2017-12-31T05:11:59.113Z,28.17
2017-12-31T05:14:27.680Z,28.17
2017-12-31T05:16:55.541Z,26.37
2017-12-31T05:19:23.408Z,28.13
2017-12-31T05:21:51.257Z,30.93
2017-12-31T05:24:19.100Z,26.40
2017-12-31T05:26:47.037Z,27.17
2017-12-31T05:29:15.598Z,26.97
2017-12-31T05:31:43.400Z,27.27
2017-12-31T05:34:11.217Z,24.80
2017-12-31T05:36:39.007Z,24.10
2017-12-31T05:39:07.581Z,25.97
2017-12-31T05:41:35.430Z,27.00
2017-12-31T05:44:04.068Z,32.57
2017-12-31T05:46:31.920Z,26.43
2017-12-31T05:49:00.496Z,29.00
2017-12-31T05:51:29.073Z,25.17
2017-12-31T05:53:57.648Z,24.47
2017-12-31T05:56:26.235Z,25.33
2017-12-31T05:58:54.806Z,28.53
2017-12-31T06:01:22.637Z,23.83
2017-12-31T06:03:50.490Z,24.10
2017-12-31T06:06:18.308Z,22.97
2017-12-31T06:08:46.961Z,25.40
2017-12-31T06:11:14.807Z,23.73
2017-12-31T06:13:42.603Z,27.87
2017-12-31T06:16:10.416Z,32.03
2017-12-31T06:18:38.316Z,28.57
2017-12-31T06:21:06.113Z,31.70
2017-12-31T06:23:33.979Z,32.43
2017-12-31T06:26:01.770Z,35.37
2017-12-31T06:28:30.331Z,30.00
2017-12-31T06:30:58.153Z,30.20
2017-12-31T06:33:26.765Z,29.23
2017-12-31T06:35:54.672Z,29.37
2017-12-31T06:38:22.505Z,33.23
2017-12-31T06:40:50.311Z,38.17
2017-12-31T06:43:18.154Z,34.70
2017-12-31T06:45:46.808Z,34.47
2017-12-31T06:48:14.612Z,34.10
2017-12-31T06:50:43.283Z,32.47
2017-12-31T06:53:11.869Z,36.60
2017-12-31T06:55:40.456Z,36.47
2017-12-31T06:58:08.308Z,33.37
2017-12-31T07:00:36.125Z,35.80
2017-12-31T07:03:03.944Z,33.27
2017-12-31T07:05:32.551Z,33.17
2017-12-31T07:08:00.626Z,30.57
2017-12-31T07:10:28.448Z,28.50
2017-12-31T07:12:56.285Z,24.77
2017-12-31T07:15:24.119Z,22.17
2017-12-31T07:17:51.976Z,25.03
2017-12-31T07:20:21.304Z,24.63
2017-12-31T07:22:49.160Z,19.57
2017-12-31T07:25:17.101Z,16.80
2017-12-31T07:27:45.669Z,15.97
2017-12-31T07:30:13.502Z,22.70
2017-12-31T07:32:41.356Z,16.60
2017-12-31T07:35:09.171Z,21.43
2017-12-31T07:37:37.060Z,18.10
2017-12-31T07:40:04.896Z,18.80
2017-12-31T07:42:32.750Z,17.33
2017-12-31T07:45:00.567Z,16.57
2017-12-31T07:47:28.377Z,21.10
2017-12-31T07:49:56.250Z,22.73
2017-12-31T07:52:24.230Z,23.00
2017-12-31T07:54:52.126Z,18.50
2017-12-31T07:57:20.020Z,35.40
2017-12-31T07:59:47.839Z,26.73
2017-12-31T08:02:16.514Z,26.40
2017-12-31T08:04:44.417Z,21.30
2017-12-31T08:07:12.268Z,19.00
2017-12-31T08:09:40.167Z,22.17
2017-12-31T08:12:08.089Z,17.40
2017-12-31T08:14:36.731Z,20.43
2017-12-31T08:17:04.641Z,21.17
2017-12-31T08:19:32.432Z,18.63
2017-12-31T08:22:00.262Z,20.20
2017-12-31T08:24:28.057Z,13.80
2017-12-31T08:26:56.673Z,17.70
2017-12-31T08:29:24.507Z,16.20
2017-12-31T08:31:53.142Z,18.80
2017-12-31T08:34:21.019Z,19.70
2017-12-31T08:36:48.836Z,20.97
2017-12-31T08:39:16.800Z,23.33
2017-12-31T08:41:44.709Z,19.93
2017-12-31T08:44:12.557Z,25.90
2017-12-31T08:46:40.376Z,27.47
2017-12-31T08:49:08.935Z,34.53
2017-12-31T08:51:36.755Z,27.60
2017-12-31T08:54:04.635Z,21.60
2017-12-31T08:56:32.510Z,16.47
2017-12-31T08:59:00.304Z,15.97
2017-12-31T09:01:28.124Z,16.83
2017-12-31T09:03:55.994Z,14.93
2017-12-31T09:06:23.823Z,14.33
2017-12-31T09:08:52.383Z,13.73
2017-12-31T09:11:20.183Z,15.00
2017-12-31T09:13:48.001Z,13.40
2017-12-31T09:16:15.876Z,13.17
2017-12-31T09:18:43.736Z,13.10
2017-12-31T09:21:11.551Z,13.30
2017-12-31T09:23:39.441Z,13.97
2017-12-31T09:26:07.302Z,16.70
2017-12-31T09:28:35.709Z,17.00
2017-12-31T09:31:03.603Z,13.27
2017-12-31T09:33:33.017Z,11.53
2017-12-31T09:36:00.873Z,17.83
2017-12-31T09:38:30.361Z,11.80
2017-12-31T09:40:58.203Z,11.40
2017-12-31T09:43:26.146Z,16.33
2017-12-31T09:45:53.981Z,12.57
2017-12-31T09:48:22.550Z,9.77
2017-12-31T09:50:51.317Z,7.80
2017-12-31T09:53:19.296Z,9.97
2017-12-31T09:55:47.184Z,19.10
2017-12-31T09:58:15.241Z,12.33
2017-12-31T10:00:43.986Z,12.70
2017-12-31T10:03:12.841Z,10.43
2017-12-31T10:05:40.966Z,14.30
2017-12-31T10:08:09.669Z,13.90
2017-12-31T10:10:37.494Z,11.12
2017-12-31T10:13:05.333Z,11.10
2017-12-31T10:15:33.201Z,11.13
2017-12-31T10:18:01.040Z,11.20
2017-12-31T10:20:29.173Z,11.90
2017-12-31T10:22:57.058Z,10.87
2017-12-31T10:25:25.444Z,10.63
2017-12-31T10:27:53.328Z,10.60
2017-12-31T10:30:22.462Z,12.13
2017-12-31T10:32:50.389Z,17.10
2017-12-31T10:35:19.017Z,13.43
2017-12-31T10:37:47.016Z,19.57
2017-12-31T10:40:17.184Z,17.53
2017-12-31T10:42:45.023Z,12.27
2017-12-31T10:45:12.825Z,13.73
2017-12-31T10:47:40.612Z,14.20
2017-12-31T10:50:08.554Z,17.10
2017-12-31T10:52:36.464Z,13.10
2017-12-31T10:55:04.295Z,12.03
2017-12-31T10:57:32.137Z,9.70
2017-12-31T11:00:00.739Z,11.20
2017-12-31T11:02:28.637Z,14.83
2017-12-31T11:04:56.513Z,10.07
2017-12-31T11:07:24.330Z,11.93
2017-12-31T11:09:52.283Z,11.27
2017-12-31T11:12:20.934Z,16.53
2017-12-31T11:14:48.766Z,11.13
2017-12-31T11:17:16.655Z,12.30
2017-12-31T11:19:44.615Z,9.10
2017-12-31T11:22:12.493Z,12.17
2017-12-31T11:24:40.317Z,12.93
2017-12-31T11:27:08.891Z,11.63
2017-12-31T11:29:37.516Z,15.20
2017-12-31T11:32:05.318Z,12.83
2017-12-31T11:34:33.171Z,13.43
2017-12-31T11:37:00.983Z,12.23
2017-12-31T11:39:28.809Z,12.37
2017-12-31T11:41:56.619Z,18.30
2017-12-31T11:44:24.483Z,13.30
2017-12-31T11:46:52.502Z,14.00
2017-12-31T11:49:20.656Z,12.20
2017-12-31T11:51:48.540Z,13.90
2017-12-31T11:54:16.436Z,13.30
2017-12-31T11:56:45.009Z,16.07
2017-12-31T11:59:12.859Z,19.00
2017-12-31T12:01:40.868Z,14.73
2017-12-31T12:04:08.765Z,12.47
2017-12-31T12:06:36.757Z,16.70
2017-12-31T12:09:04.739Z,15.40
2017-12-31T12:11:32.556Z,15.50
2017-12-31T12:14:00.371Z,9.90
2017-12-31T12:16:28.209Z,13.30
2017-12-31T12:18:56.773Z,13.90
2017-12-31T12:21:24.585Z,12.33
2017-12-31T12:23:52.405Z,7.90
2017-12-31T12:26:20.199Z,6.27
2017-12-31T12:28:48.052Z,15.83
2017-12-31T12:31:15.889Z,9.40
2017-12-31T12:33:43.829Z,16.40
2017-12-31T12:36:12.440Z,12.60
2017-12-31T12:38:40.335Z,13.83
2017-12-31T12:41:08.144Z,13.13
2017-12-31T12:43:36.791Z,15.70
2017-12-31T12:46:04.643Z,16.47
2017-12-31T12:48:32.441Z,11.80
2017-12-31T12:51:00.267Z,13.13
2017-12-31T12:53:28.157Z,11.33
2017-12-31T12:55:56.262Z,14.30
2017-12-31T12:58:24.845Z,13.02
2017-12-31T13:00:53.475Z,12.20
2017-12-31T13:03:21.312Z,13.10
2017-12-31T13:05:49.953Z,8.43
2017-12-31T13:08:17.775Z,10.53
2017-12-31T13:10:45.608Z,13.00
2017-12-31T13:13:14.281Z,12.40
2017-12-31T13:15:42.148Z,17.07
2017-12-31T13:18:09.991Z,18.17
2017-12-31T13:20:37.857Z,20.63
2017-12-31T13:23:05.661Z,19.70
2017-12-31T13:25:34.265Z,13.20
2017-12-31T13:28:02.063Z,13.85
2017-12-31T13:30:29.940Z,24.27
2017-12-31T13:32:57.862Z,14.60
2017-12-31T13:35:25.673Z,30.30
2017-12-31T13:37:53.574Z,56.27
2017-12-31T13:40:22.145Z,26.97
2017-12-31T13:42:49.965Z,14.95
2017-12-31T13:45:17.823Z,13.00
2017-12-31T13:47:46.444Z,10.37
2017-12-31T13:50:14.352Z,15.63
2017-12-31T13:52:42.907Z,9.13
2017-12-31T13:55:10.731Z,10.93
2017-12-31T13:57:38.666Z,15.97
2017-12-31T14:00:06.497Z,13.90
2017-12-31T14:02:34.367Z,9.13
2017-12-31T14:05:02.154Z,11.33
2017-12-31T14:07:30.727Z,11.03
2017-12-31T14:09:58.528Z,11.00
2017-12-31T14:12:26.341Z,12.70
2017-12-31T14:14:54.163Z,20.63
2017-12-31T14:17:21.972Z,11.80
2017-12-31T14:19:49.818Z,15.83
2017-12-31T14:22:17.764Z,17.70
2017-12-31T14:24:45.664Z,26.97
2017-12-31T14:27:13.470Z,13.60
2017-12-31T14:29:42.030Z,19.73
2017-12-31T14:32:09.931Z,15.23
2017-12-31T14:34:37.846Z,20.70
2017-12-31T14:37:05.650Z,25.87
2017-12-31T14:39:34.275Z,19.63
2017-12-31T14:42:02.129Z,18.63
2017-12-31T14:44:29.945Z,15.13
2017-12-31T14:46:57.753Z,22.70
2017-12-31T14:49:25.627Z,21.53
2017-12-31T14:51:53.622Z,18.17
2017-12-31T14:54:21.598Z,15.40
2017-12-31T14:56:49.557Z,18.47
2017-12-31T14:59:17.351Z,18.03
2017-12-31T15:01:45.201Z,15.60
2017-12-31T15:04:15.127Z,17.70
2017-12-31T15:06:43.801Z,16.73
2017-12-31T15:09:11.608Z,21.50
2017-12-31T15:11:41.084Z,19.43
2017-12-31T15:14:09.168Z,17.00
2017-12-31T15:16:37.082Z,17.07
2017-12-31T15:19:04.956Z,20.00
2017-12-31T15:21:33.978Z,23.37
2017-12-31T15:24:02.262Z,12.00
2017-12-31T15:26:30.047Z,24.70
2017-12-31T15:28:58.669Z,18.13
2017-12-31T15:31:26.556Z,18.03
2017-12-31T15:33:54.451Z,24.97
2017-12-31T15:36:23.123Z,13.80
2017-12-31T15:38:51.028Z,20.63
2017-12-31T15:41:18.856Z,17.20
2017-12-31T15:43:46.640Z,25.80
2017-12-31T15:46:15.282Z,20.23
2017-12-31T15:48:43.105Z,17.50
2017-12-31T15:51:10.962Z,20.73
2017-12-31T15:53:38.812Z,21.03
2017-12-31T15:56:07.378Z,22.73
2017-12-31T15:58:35.216Z,22.37
2017-12-31T16:01:03.043Z,27.70
2017-12-31T16:03:30.931Z,27.93
2017-12-31T16:05:58.753Z,28.27
2017-12-31T16:08:26.573Z,24.57
2017-12-31T16:10:54.444Z,19.53
2017-12-31T16:13:22.286Z,26.00
2017-12-31T16:15:50.180Z,20.57
2017-12-31T16:18:18.067Z,18.43
2017-12-31T16:20:45.880Z,20.33
2017-12-31T16:23:13.716Z,21.27
2017-12-31T16:25:42.319Z,17.57
2017-12-31T16:28:10.134Z,19.60
2017-12-31T16:30:38.038Z,21.13
2017-12-31T16:33:06.617Z,21.73
2017-12-31T16:35:35.269Z,26.17
2017-12-31T16:38:03.072Z,21.57
2017-12-31T16:40:31.686Z,16.47
2017-12-31T16:42:59.471Z,24.80
2017-12-31T16:45:27.313Z,25.13
2017-12-31T16:47:55.222Z,21.23
2017-12-31T16:50:23.370Z,25.27
2017-12-31T16:52:51.266Z,22.37
2017-12-31T16:55:19.088Z,36.00
2017-12-31T16:57:47.045Z,29.37
2017-12-31T17:00:14.963Z,27.00
2017-12-31T17:02:42.760Z,22.17
2017-12-31T17:05:11.566Z,25.47
2017-12-31T17:07:39.367Z,24.27
2017-12-31T17:10:08.016Z,29.53
2017-12-31T17:12:35.807Z,30.23
2017-12-31T17:15:03.739Z,34.90
2017-12-31T17:17:31.786Z,39.23
2017-12-31T17:19:59.565Z,47.87
2017-12-31T17:22:28.130Z,56.33
2017-12-31T17:24:59.136Z,43.60
2017-12-31T17:27:27.182Z,50.07
2017-12-31T17:29:55.124Z,51.17
2017-12-31T17:32:23.705Z,48.73
2017-12-31T17:34:52.273Z,42.30
2017-12-31T17:37:20.139Z,41.03
2017-12-31T17:39:47.998Z,34.78
2017-12-31T17:42:15.848Z,20.17
2017-12-31T17:44:43.656Z,26.70
2017-12-31T17:47:12.231Z,26.13
2017-12-31T17:49:40.811Z,30.47
2017-12-31T17:52:09.392Z,51.60
2017-12-31T17:54:37.991Z,35.77
2017-12-31T17:57:06.631Z,28.93
2017-12-31T17:59:34.424Z,27.23
2017-12-31T18:02:02.344Z,24.87
2017-12-31T18:04:30.238Z,28.00
2017-12-31T18:06:58.057Z,26.07
2017-12-31T18:09:25.873Z,25.47
2017-12-31T18:11:53.679Z,29.37
2017-12-31T18:14:21.674Z,26.37
2017-12-31T18:16:49.585Z,28.83
2017-12-31T18:19:17.394Z,19.20
2017-12-31T18:21:45.212Z,30.63
2017-12-31T18:24:13.102Z,31.87
2017-12-31T18:26:41.712Z,26.73
2017-12-31T18:29:09.571Z,28.23
2017-12-31T18:31:37.467Z,21.20
2017-12-31T18:34:05.333Z,24.10
2017-12-31T18:36:33.201Z,38.57
2017-12-31T18:39:00.999Z,35.77
2017-12-31T18:41:28.861Z,48.80
2017-12-31T18:43:56.722Z,48.73
2017-12-31T18:46:24.564Z,25.80
2017-12-31T18:48:52.394Z,34.60
2017-12-31T18:51:20.262Z,31.87
2017-12-31T18:53:48.115Z,32.93
2017-12-31T18:56:15.955Z,48.07
2017-12-31T18:58:43.755Z,65.37
2017-12-31T19:01:11.604Z,58.50
2017-12-31T19:03:40.239Z,42.03
2017-12-31T19:06:08.083Z,35.07
2017-12-31T19:08:35.941Z,35.50
2017-12-31T19:11:03.805Z,42.97
2017-12-31T19:13:31.594Z,37.73
2017-12-31T19:15:59.484Z,60.63
2017-12-31T19:18:27.318Z,85.30
2017-12-31T19:20:55.163Z,55.40
2017-12-31T19:23:23.161Z,46.83
2017-12-31T19:25:50.960Z,44.53
2017-12-31T19:28:18.827Z,92.50
2017-12-31T19:30:46.628Z,97.93
2017-12-31T19:33:14.523Z,52.40
2017-12-31T19:35:42.375Z,45.67
2017-12-31T19:38:10.217Z,42.67
2017-12-31T19:40:38.775Z,47.33
2017-12-31T19:43:06.560Z,31.53
2017-12-31T19:45:34.503Z,24.00
2017-12-31T19:48:02.289Z,36.30
2017-12-31T19:50:30.961Z,39.13
2017-12-31T19:52:58.743Z,34.00
2017-12-31T19:55:27.376Z,27.87
2017-12-31T19:57:55.280Z,55.40
2017-12-31T20:00:23.061Z,50.27
2017-12-31T20:02:51.638Z,38.03
2017-12-31T20:05:19.457Z,60.60
2017-12-31T20:07:47.320Z,50.37
2017-12-31T20:10:15.145Z,39.03
2017-12-31T20:12:43.897Z,47.27
2017-12-31T20:15:11.688Z,66.57
2017-12-31T20:17:40.318Z,58.03
2017-12-31T20:20:08.086Z,30.10
2017-12-31T20:22:35.900Z,25.73
2017-12-31T20:25:04.521Z,33.77
2017-12-31T20:27:32.314Z,29.43
2017-12-31T20:30:00.155Z,60.30
2017-12-31T20:32:28.008Z,54.23
2017-12-31T20:34:55.829Z,63.17
2017-12-31T20:37:23.660Z,39.53
2017-12-31T20:39:51.471Z,38.00
2017-12-31T20:42:20.019Z,48.20
2017-12-31T20:44:47.831Z,66.20
2017-12-31T20:47:16.364Z,59.47
2017-12-31T20:49:44.210Z,57.87
2017-12-31T20:52:12.012Z,52.80
2017-12-31T20:54:39.790Z,45.63
2017-12-31T20:57:07.647Z,43.07
2017-12-31T20:59:35.538Z,33.77
2017-12-31T21:02:04.153Z,29.43
2017-12-31T21:04:32.022Z,32.03
2017-12-31T21:06:59.834Z,30.47
2017-12-31T21:09:27.648Z,35.77
2017-12-31T21:11:55.469Z,37.47
2017-12-31T21:14:24.028Z,34.53
2017-12-31T21:16:51.853Z,30.87
2017-12-31T21:19:19.622Z,32.90
2017-12-31T21:21:47.519Z,32.17
2017-12-31T21:24:15.313Z,35.93
2017-12-31T21:26:43.957Z,36.67
2017-12-31T21:29:11.744Z,33.00
2017-12-31T21:31:39.564Z,24.00
2017-12-31T21:34:08.163Z,23.50
2017-12-31T21:36:35.941Z,23.83
2017-12-31T21:39:03.949Z,32.70
2017-12-31T21:41:32.609Z,19.53
2017-12-31T21:44:00.447Z,19.07
2017-12-31T21:46:28.244Z,26.40
2017-12-31T21:48:56.044Z,20.00
2017-12-31T21:51:24.659Z,19.10
2017-12-31T21:53:52.448Z,12.97
2017-12-31T21:56:20.330Z,22.83
2017-12-31T21:58:48.935Z,21.63
2017-12-31T22:01:16.774Z,20.03
2017-12-31T22:03:44.667Z,21.10
2017-12-31T22:06:13.418Z,21.53
2017-12-31T22:08:41.241Z,18.03
2017-12-31T22:11:09.134Z,22.07
2017-12-31T22:13:36.923Z,19.08
2017-12-31T22:16:04.736Z,17.30
2017-12-31T22:18:32.554Z,32.40
2017-12-31T22:21:00.393Z,58.73
2017-12-31T22:23:28.218Z,67.80
2017-12-31T22:25:56.787Z,56.83
2017-12-31T22:28:25.372Z,35.27
2017-12-31T22:30:53.932Z,28.60
2017-12-31T22:33:21.744Z,23.20
2017-12-31T22:35:49.567Z,18.87
2017-12-31T22:38:17.338Z,30.13
2017-12-31T22:40:45.115Z,27.87
2017-12-31T22:43:13.708Z,27.83
2017-12-31T22:45:41.583Z,18.30
2017-12-31T22:48:09.466Z,17.03
2017-12-31T22:50:37.279Z,19.23
2017-12-31T22:53:05.211Z,19.43
2017-12-31T22:55:33.097Z,11.33
2017-12-31T22:58:00.909Z,18.93
2017-12-31T23:00:28.777Z,19.13
2017-12-31T23:02:56.605Z,20.63
2017-12-31T23:05:24.425Z,15.47
2017-12-31T23:07:52.316Z,11.93
2017-12-31T23:10:20.183Z,31.17
2017-12-31T23:12:47.967Z,20.40
2017-12-31T23:15:15.747Z,19.90
2017-12-31T23:17:44.397Z,21.70
2017-12-31T23:20:12.263Z,11.83
2017-12-31T23:22:40.856Z,17.30
2017-12-31T23:25:08.634Z,19.40
2017-12-31T23:27:36.479Z,17.03
2017-12-31T23:30:04.395Z,12.20
2017-12-31T23:32:32.217Z,13.10
2017-12-31T23:35:00.035Z,18.87
2017-12-31T23:37:27.852Z,17.77
2017-12-31T23:39:55.675Z,25.73
2017-12-31T23:42:23.539Z,23.30
2017-12-31T23:44:51.361Z,15.73
2017-12-31T23:47:19.283Z,19.50
2017-12-31T23:49:47.863Z,13.13
2017-12-31T23:52:15.756Z,14.80
2017-12-31T23:54:43.577Z,17.90
2017-12-31T23:57:11.365Z,15.97
2017-12-31T23:59:39.168Z,14.00
